createdAt,value
2023-03-26T00:00:09.889Z,0
2023-03-26T00:05:16.292Z,0
2023-03-26T00:10:22.702Z,0
2023-03-26T00:15:29.119Z,0
2023-03-26T00:20:35.534Z,0
2023-03-26T00:25:41.943Z,0
2023-03-26T00:30:48.365Z,0
2023-03-26T00:35:54.810Z,0
2023-03-26T00:41:01.189Z,0
2023-03-26T00:46:07.640Z,0
2023-03-26T00:51:14.090Z,0
2023-03-26T00:56:20.572Z,0
2023-03-26T01:01:26.923Z,0
2023-03-26T01:06:33.262Z,0
2023-03-26T01:11:39.682Z,0
2023-03-26T01:16:46.129Z,0
2023-03-26T01:21:52.508Z,0
2023-03-26T01:26:58.924Z,0
2023-03-26T01:32:05.349Z,0
2023-03-26T01:37:11.754Z,0
2023-03-26T01:42:18.168Z,0
2023-03-26T01:47:24.657Z,0
2023-03-26T01:52:30.974Z,0
2023-03-26T01:57:37.403Z,0
2023-03-26T02:02:43.800Z,0
2023-03-26T02:07:50.229Z,0
2023-03-26T02:12:56.656Z,0
2023-03-26T02:18:03.169Z,0
2023-03-26T02:23:09.460Z,0
2023-03-26T02:28:15.865Z,0
2023-03-26T02:33:22.288Z,0
2023-03-26T02:38:28.695Z,0
2023-03-26T02:43:35.147Z,0
2023-03-26T02:48:41.532Z,0
2023-03-26T02:53:47.992Z,0
2023-03-26T02:58:54.366Z,0
2023-03-26T03:04:00.772Z,0
2023-03-26T03:09:07.188Z,0
2023-03-26T03:14:13.666Z,0
2023-03-26T03:19:20.017Z,0
2023-03-26T03:24:26.444Z,0
2023-03-26T03:29:32.879Z,0
2023-03-26T03:34:39.262Z,0
2023-03-26T03:39:45.671Z,0
2023-03-26T03:44:52.085Z,0
2023-03-26T03:49:58.508Z,0
2023-03-26T03:55:04.919Z,0
2023-03-26T04:00:11.346Z,0
2023-03-26T04:05:17.829Z,0
2023-03-26T04:10:24.150Z,0
2023-03-26T04:15:30.565Z,0
2023-03-26T04:20:36.989Z,0
2023-03-26T04:25:43.393Z,0
2023-03-26T04:30:49.828Z,0
2023-03-26T04:35:56.229Z,0
2023-03-26T04:41:02.655Z,0
2023-03-26T04:46:09.091Z,0
2023-03-26T04:51:15.414Z,1
2023-03-26T04:56:21.735Z,2
2023-03-26T05:01:28.102Z,1
2023-03-26T05:06:34.370Z,6
2023-03-26T05:11:40.660Z,4
2023-03-26T05:16:46.989Z,10
2023-03-26T05:21:53.404Z,17
2023-03-26T05:26:59.579Z,19
2023-03-26T05:32:05.898Z,27
2023-03-26T05:37:12.201Z,29
2023-03-26T05:42:18.510Z,28
2023-03-26T05:47:24.809Z,39
2023-03-26T05:52:31.111Z,48
2023-03-26T05:57:37.429Z,20
2023-03-26T06:02:43.829Z,118
2023-03-26T06:07:50.030Z,126
2023-03-26T06:12:56.331Z,195
2023-03-26T06:18:02.637Z,141
2023-03-26T06:23:08.947Z,253
2023-03-26T06:28:15.251Z,250
2023-03-26T06:33:21.567Z,231
2023-03-26T06:38:27.880Z,280
2023-03-26T06:48:40.576Z,333
2023-03-26T06:53:46.777Z,321
2023-03-26T06:58:53.159Z,259
2023-03-26T07:03:59.558Z,208
2023-03-26T07:09:05.796Z,358
2023-03-26T07:14:12.018Z,237
2023-03-26T07:19:18.321Z,403
2023-03-26T07:24:24.641Z,106
2023-03-26T07:29:30.964Z,797
2023-03-26T07:34:37.230Z,726
2023-03-26T07:39:43.543Z,634
2023-03-26T07:44:49.836Z,473
2023-03-26T07:49:56.164Z,385
2023-03-26T07:55:02.479Z,79
2023-03-26T08:00:08.767Z,339
2023-03-26T08:05:15.110Z,446
2023-03-26T08:10:21.376Z,317
2023-03-26T08:15:27.690Z,229
2023-03-26T08:20:34.056Z,289
2023-03-26T08:25:40.315Z,324
2023-03-26T08:30:46.618Z,112
2023-03-26T08:35:52.915Z,811
2023-03-26T08:40:59.253Z,451
2023-03-26T08:46:05.513Z,928
2023-03-26T08:56:18.212Z,1522
2023-03-26T09:01:24.548Z,1064
2023-03-26T09:06:30.826Z,1598
2023-03-26T09:11:37.069Z,1661
2023-03-26T09:16:43.432Z,1702
2023-03-26T09:21:49.728Z,1611
2023-03-26T09:26:55.979Z,2161
2023-03-26T09:32:02.288Z,1804
2023-03-26T09:37:08.581Z,1172
2023-03-26T09:42:14.918Z,1924
2023-03-26T09:47:21.208Z,1951
2023-03-26T09:52:27.547Z,1953
2023-03-26T09:57:33.835Z,2086
2023-03-26T10:02:40.115Z,2201
2023-03-26T10:07:46.426Z,2219
2023-03-26T10:12:52.752Z,2118
2023-03-26T10:17:59.046Z,2067
2023-03-26T10:23:05.385Z,2079
2023-03-26T10:28:11.653Z,1851
2023-03-26T10:33:17.954Z,1841
2023-03-26T10:38:24.268Z,1946
2023-03-26T10:43:30.657Z,1899
2023-03-26T10:48:36.873Z,2199
2023-03-26T10:53:43.175Z,2025
2023-03-26T10:58:49.493Z,1900
2023-03-26T11:03:55.802Z,2281
2023-03-26T11:09:02.128Z,2286
2023-03-26T11:14:08.422Z,2180
2023-03-26T11:19:14.718Z,2247
2023-03-26T11:24:21.025Z,2275
2023-03-26T11:29:27.396Z,785
2023-03-26T11:34:33.687Z,2672
2023-03-26T11:39:39.947Z,2661
2023-03-26T11:44:46.259Z,2340
2023-03-26T11:49:52.562Z,1811
2023-03-26T11:54:58.865Z,1700
2023-03-26T12:00:05.193Z,1360
2023-03-26T12:05:11.515Z,1021
2023-03-26T12:10:17.766Z,908
2023-03-26T12:15:24.068Z,605
2023-03-26T12:20:30.402Z,291
2023-03-26T12:30:43.080Z,669
2023-03-26T12:35:49.330Z,1134
2023-03-26T12:40:55.733Z,1305
2023-03-26T12:46:01.909Z,1262
2023-03-26T12:51:08.218Z,1180
2023-03-26T12:56:14.531Z,1115
2023-03-26T13:01:21.017Z,1249
2023-03-26T13:06:27.131Z,1290
2023-03-26T13:11:33.467Z,1228
2023-03-26T13:16:39.746Z,1030
2023-03-26T13:21:46.131Z,1114
2023-03-26T13:26:52.375Z,1179
2023-03-26T13:31:58.758Z,1219
2023-03-26T13:37:04.986Z,977
2023-03-26T13:42:11.296Z,559
2023-03-26T13:47:17.583Z,897
2023-03-26T13:52:23.983Z,839
2023-03-26T13:57:30.218Z,796
2023-03-26T14:02:36.510Z,707
2023-03-26T14:07:42.825Z,566
2023-03-26T14:12:49.138Z,613
2023-03-26T14:17:55.431Z,815
2023-03-26T14:23:01.737Z,822
2023-03-26T14:28:08.054Z,732
2023-03-26T14:33:14.364Z,711
2023-03-26T14:38:20.660Z,672
2023-03-26T14:43:26.950Z,714
2023-03-26T14:48:33.272Z,855
2023-03-26T14:53:39.579Z,791
2023-03-26T14:58:45.899Z,849
2023-03-26T15:03:52.186Z,906
2023-03-26T15:08:58.503Z,890
2023-03-26T15:14:04.813Z,844
2023-03-26T15:19:11.123Z,830
2023-03-26T15:24:17.418Z,836
2023-03-26T15:34:30.027Z,709
2023-03-26T15:39:36.337Z,626
2023-03-26T15:44:42.635Z,537
2023-03-26T15:49:48.962Z,512
2023-03-26T15:54:55.403Z,500
2023-03-26T16:00:01.554Z,419
2023-03-26T16:05:07.879Z,681
2023-03-26T16:10:14.167Z,658
2023-03-26T16:15:20.476Z,564
2023-03-26T16:20:26.782Z,449
2023-03-26T16:25:33.085Z,361
2023-03-26T16:30:39.412Z,273
2023-03-26T16:35:45.712Z,188
2023-03-26T16:40:51.998Z,245
2023-03-26T16:45:58.342Z,372
2023-03-26T16:51:04.627Z,328
2023-03-26T16:56:10.927Z,295
2023-03-26T17:01:17.231Z,262
2023-03-26T17:06:23.536Z,192
2023-03-26T17:11:29.859Z,141
2023-03-26T17:16:36.146Z,94
2023-03-26T17:21:42.451Z,59
2023-03-26T17:26:48.777Z,34
2023-03-26T17:31:55.070Z,21
2023-03-26T17:37:01.368Z,13
2023-03-26T17:42:07.683Z,9
2023-03-26T17:47:13.996Z,8
2023-03-26T17:52:20.297Z,4
2023-03-26T17:57:26.598Z,2
2023-03-26T18:02:33.018Z,0
2023-03-26T18:07:39.432Z,0
2023-03-26T18:12:45.862Z,0
2023-03-26T18:17:52.257Z,0
2023-03-26T18:22:58.661Z,0
2023-03-26T18:28:05.084Z,0
2023-03-26T18:33:11.498Z,0
2023-03-26T18:38:17.906Z,0
2023-03-26T18:43:24.325Z,0
2023-03-26T18:48:30.746Z,0
2023-03-26T18:53:37.144Z,0
2023-03-26T18:58:43.561Z,0
2023-03-26T19:03:49.976Z,0
2023-03-26T19:08:56.389Z,0
2023-03-26T19:14:02.802Z,0
2023-03-26T19:19:09.223Z,0
2023-03-26T19:24:15.624Z,0
2023-03-26T19:29:22.103Z,0
2023-03-26T19:34:28.462Z,0
2023-03-26T19:39:35.130Z,0
2023-03-26T19:44:41.487Z,0
2023-03-26T19:49:47.899Z,0
2023-03-26T19:54:58.969Z,0
2023-03-26T20:00:00.609Z,0
2023-03-26T20:05:07.123Z,0
2023-03-26T20:10:13.553Z,0
2023-03-26T20:15:19.817Z,0
2023-03-26T20:20:26.361Z,0
2023-03-26T20:25:32.699Z,0
2023-03-26T20:30:39.149Z,0
2023-03-26T20:35:45.583Z,0
2023-03-26T20:40:51.983Z,0
2023-03-26T20:45:58.270Z,0
2023-03-26T20:51:04.869Z,0
2023-03-26T20:56:11.095Z,0
2023-03-26T21:01:17.516Z,0
2023-03-26T21:06:24.128Z,0
2023-03-26T21:11:30.359Z,0
2023-03-26T21:16:36.763Z,0
2023-03-26T21:21:43.153Z,0
2023-03-26T21:26:49.572Z,0
2023-03-26T21:31:56.005Z,0
2023-03-26T21:42:08.812Z,0
2023-03-26T21:47:15.232Z,0
2023-03-26T21:52:21.641Z,0
2023-03-26T21:57:28.120Z,0
2023-03-26T22:02:34.465Z,0
2023-03-26T22:07:40.936Z,0
2023-03-26T22:12:47.312Z,0
2023-03-26T22:17:53.710Z,0
2023-03-26T22:23:00.130Z,0
2023-03-26T22:28:06.538Z,0
2023-03-26T22:33:12.973Z,0
2023-03-26T22:38:19.374Z,0
2023-03-26T22:43:25.813Z,0
2023-03-26T22:48:32.194Z,0
2023-03-26T22:53:38.619Z,0
2023-03-26T22:58:45.018Z,0
2023-03-26T23:03:51.442Z,0
2023-03-26T23:08:57.850Z,0
2023-03-26T23:14:04.274Z,0
2023-03-26T23:19:10.678Z,0
2023-03-26T23:24:17.099Z,0
2023-03-26T23:29:23.513Z,0
2023-03-26T23:34:29.920Z,0
2023-03-26T23:39:36.336Z,0
2023-03-26T23:44:42.765Z,0
2023-03-26T23:49:49.168Z,0
2023-03-26T23:54:55.585Z,0
